createdAt,value
2023-03-25T00:01:19.494Z,8.60
2023-03-25T00:03:50.916Z,8.70
2023-03-25T00:06:20.045Z,8.60
2023-03-25T00:08:48.343Z,8.60
2023-03-25T00:11:18.103Z,8.50
2023-03-25T00:13:48.137Z,8.40
2023-03-25T00:16:19.053Z,8.30
2023-03-25T00:18:48.163Z,8.30
2023-03-25T00:21:18.866Z,8.30
2023-03-25T00:23:47.368Z,8.30
2023-03-25T00:26:15.781Z,8.30
2023-03-25T00:28:45.823Z,8.40
2023-03-25T00:31:15.882Z,8.40
2023-03-25T00:33:44.476Z,8.30
2023-03-25T00:36:14.818Z,8.30
2023-03-25T00:38:45.608Z,8.30
2023-03-25T00:41:18.170Z,8.20
2023-03-25T00:43:47.913Z,8.10
2023-03-25T00:46:16.692Z,8.10
2023-03-25T00:48:45.102Z,8.00
2023-03-25T00:51:14.771Z,8.10
2023-03-25T00:53:43.092Z,8.10
2023-03-25T00:56:12.274Z,8.10
2023-03-25T00:58:40.749Z,8.10
2023-03-25T01:01:15.619Z,8.10
2023-03-25T01:03:44.875Z,8.00
2023-03-25T01:06:14.526Z,8.00
2023-03-25T01:08:44.369Z,7.90
2023-03-25T01:11:20.391Z,7.90
2023-03-25T01:13:51.297Z,7.80
2023-03-25T01:16:21.131Z,7.90
2023-03-25T01:18:49.581Z,7.90
2023-03-25T01:21:18.199Z,8.10
2023-03-25T01:23:46.672Z,8.20
2023-03-25T01:26:15.032Z,8.30
2023-03-25T01:28:44.989Z,8.40
2023-03-25T01:31:14.816Z,8.50
2023-03-25T01:33:44.726Z,8.60
2023-03-25T01:36:13.979Z,8.70
2023-03-25T01:38:43.320Z,8.70
2023-03-25T01:41:12.246Z,8.70
2023-03-25T01:43:41.691Z,8.80
2023-03-25T01:46:15.266Z,8.80
2023-03-25T01:48:49.972Z,8.80
2023-03-25T01:51:23.353Z,8.80
2023-03-25T01:53:53.224Z,8.70
2023-03-25T01:56:26.832Z,8.70
2023-03-25T01:58:56.706Z,8.80
2023-03-25T02:01:26.753Z,8.80
2023-03-25T02:04:03.026Z,8.80
2023-03-25T02:06:39.299Z,8.90
2023-03-25T02:09:09.140Z,8.90
2023-03-25T02:11:37.779Z,8.90
2023-03-25T02:14:09.411Z,9.00
2023-03-25T02:16:47.909Z,9.00
2023-03-25T02:20:09.112Z,8.90
2023-03-25T02:23:13.074Z,8.90
2023-03-25T02:26:15.076Z,8.80
2023-03-25T02:28:51.385Z,8.90
2023-03-25T02:31:37.051Z,8.90
2023-03-25T02:34:46.273Z,8.80
2023-03-25T02:37:58.438Z,8.80
2023-03-25T02:40:32.032Z,8.80
2023-03-25T02:43:06.778Z,8.70
2023-03-25T02:45:44.357Z,8.60
2023-03-25T02:48:17.364Z,8.50
2023-03-25T02:50:52.170Z,8.40
2023-03-25T02:53:27.066Z,8.40
2023-03-25T02:56:01.181Z,8.30
2023-03-25T02:58:31.843Z,8.20
2023-03-25T03:01:00.427Z,8.30
2023-03-25T03:03:29.895Z,8.30
2023-03-25T03:06:03.281Z,8.30
2023-03-25T03:08:48.655Z,8.20
2023-03-25T03:11:21.627Z,8.20
2023-03-25T03:14:08.006Z,8.20
2023-03-25T03:16:46.397Z,8.10
2023-03-25T03:19:27.902Z,8.20
2023-03-25T03:22:01.261Z,8.20
2023-03-25T03:24:34.414Z,8.20
2023-03-25T03:27:09.607Z,8.20
2023-03-25T03:29:41.103Z,8.30
2023-03-25T03:32:15.655Z,8.30
2023-03-25T03:34:48.413Z,8.30
2023-03-25T03:37:22.014Z,8.30
2023-03-25T03:39:51.562Z,8.50
2023-03-25T03:42:26.979Z,8.50
2023-03-25T03:44:59.754Z,8.50
2023-03-25T03:47:31.672Z,8.60
2023-03-25T03:50:02.800Z,8.60
2023-03-25T03:52:37.636Z,8.60
2023-03-25T03:55:10.783Z,8.60
2023-03-25T03:57:46.262Z,8.70
2023-03-25T04:00:19.652Z,8.70
2023-03-25T04:02:51.469Z,8.70
2023-03-25T04:05:23.058Z,8.70
2023-03-25T04:07:56.971Z,8.60
2023-03-25T04:10:34.758Z,8.60
2023-03-25T04:13:09.317Z,8.60
2023-03-25T04:15:38.611Z,8.60
2023-03-25T04:18:06.995Z,8.60
2023-03-25T04:20:36.579Z,8.60
2023-03-25T04:23:06.126Z,8.60
2023-03-25T04:25:34.496Z,8.70
2023-03-25T04:28:04.198Z,8.80
2023-03-25T04:30:32.508Z,8.90
2023-03-25T04:33:01.255Z,8.90
2023-03-25T04:35:33.117Z,8.90
2023-03-25T04:38:01.822Z,8.90
2023-03-25T04:40:30.289Z,8.90
2023-03-25T04:42:58.800Z,8.90
2023-03-25T04:45:28.809Z,9.00
2023-03-25T04:47:58.024Z,8.90
2023-03-25T04:50:28.632Z,8.90
2023-03-25T04:53:00.379Z,9.00
2023-03-25T04:55:29.950Z,9.00
2023-03-25T04:57:58.447Z,9.00
2023-03-25T05:00:28.444Z,9.00
2023-03-25T05:03:01.958Z,9.10
2023-03-25T05:05:30.429Z,9.10
2023-03-25T05:07:59.158Z,9.10
2023-03-25T05:10:29.623Z,9.10
2023-03-25T05:13:00.983Z,9.20
2023-03-25T05:15:32.732Z,9.10
2023-03-25T05:18:02.024Z,9.00
2023-03-25T05:20:30.869Z,9.00
2023-03-25T05:22:59.188Z,8.90
2023-03-25T05:25:29.019Z,8.80
2023-03-25T05:27:57.343Z,8.70
2023-03-25T05:30:25.680Z,8.60
2023-03-25T05:32:57.119Z,8.50
2023-03-25T05:35:26.765Z,8.40
2023-03-25T05:37:55.870Z,8.40
2023-03-25T05:40:25.403Z,8.40
2023-03-25T05:42:55.116Z,8.30
2023-03-25T05:45:24.264Z,8.40
2023-03-25T05:47:52.744Z,8.30
2023-03-25T05:50:23.060Z,8.30
2023-03-25T05:52:51.894Z,8.40
2023-03-25T05:55:22.628Z,8.40
2023-03-25T05:57:51.247Z,8.50
2023-03-25T06:00:24.083Z,8.50
2023-03-25T06:02:53.079Z,8.60
2023-03-25T06:05:24.363Z,8.60
2023-03-25T06:07:56.377Z,8.70
2023-03-25T06:10:25.146Z,8.70
2023-03-25T06:12:54.324Z,8.70
2023-03-25T06:15:33.403Z,8.70
2023-03-25T06:18:02.204Z,8.80
2023-03-25T06:20:33.528Z,8.90
2023-03-25T06:23:03.066Z,8.80
2023-03-25T06:25:31.412Z,8.80
2023-03-25T06:28:03.271Z,8.80
2023-03-25T06:30:31.793Z,8.70
2023-03-25T06:33:03.115Z,8.70
2023-03-25T06:35:33.193Z,8.60
2023-03-25T06:38:01.816Z,8.50
2023-03-25T06:40:50.146Z,8.50
2023-03-25T06:43:18.625Z,8.40
2023-03-25T06:45:59.447Z,8.40
2023-03-25T06:48:54.213Z,8.40
2023-03-25T06:51:23.956Z,8.50
2023-03-25T06:53:52.469Z,8.60
2023-03-25T06:56:20.926Z,8.70
2023-03-25T06:58:49.264Z,8.90
2023-03-25T07:01:17.678Z,9.20
2023-03-25T07:03:46.122Z,9.40
2023-03-25T07:06:18.446Z,9.60
2023-03-25T07:08:48.661Z,9.80
2023-03-25T07:11:21.069Z,10.00
2023-03-25T07:13:53.737Z,10.10
2023-03-25T07:16:22.591Z,10.10
2023-03-25T07:18:52.008Z,10.10
2023-03-25T07:21:20.825Z,10.00
2023-03-25T07:23:50.598Z,9.90
2023-03-25T07:26:19.499Z,9.70
2023-03-25T07:28:48.600Z,9.60
2023-03-25T07:31:18.176Z,9.50
2023-03-25T07:33:46.573Z,9.50
2023-03-25T07:36:15.309Z,9.60
2023-03-25T07:38:44.900Z,9.60
2023-03-25T07:41:15.105Z,9.60
2023-03-25T07:44:03.783Z,9.70
2023-03-25T07:46:33.975Z,9.80
2023-03-25T07:49:02.379Z,10.00
2023-03-25T07:51:33.190Z,10.10
2023-03-25T07:54:05.194Z,10.30
2023-03-25T07:56:36.437Z,10.30
2023-03-25T07:59:05.690Z,10.30
2023-03-25T08:01:33.985Z,10.10
2023-03-25T08:04:02.414Z,10.10
2023-03-25T08:06:31.202Z,10.20
2023-03-25T08:08:59.603Z,10.40
2023-03-25T08:11:27.971Z,10.60
2023-03-25T08:13:57.697Z,10.80
2023-03-25T08:16:26.030Z,10.90
2023-03-25T08:18:54.603Z,10.80
2023-03-25T08:21:25.261Z,10.90
2023-03-25T08:23:58.287Z,11.10
2023-03-25T08:26:27.018Z,11.00
2023-03-25T08:28:57.821Z,11.20
2023-03-25T08:31:31.183Z,11.30
2023-03-25T08:33:59.698Z,11.20
2023-03-25T08:36:28.103Z,11.20
2023-03-25T08:38:56.783Z,11.20
2023-03-25T08:41:26.098Z,11.30
2023-03-25T08:43:54.452Z,11.60
2023-03-25T08:46:23.292Z,11.60
2023-03-25T08:48:53.825Z,11.90
2023-03-25T08:51:22.203Z,11.90
2023-03-25T08:53:50.695Z,12.00
2023-03-25T08:56:19.044Z,12.00
2023-03-25T08:58:47.449Z,12.00
2023-03-25T09:01:15.955Z,12.10
2023-03-25T09:03:44.387Z,12.10
2023-03-25T09:06:14.106Z,12.20
2023-03-25T09:08:42.476Z,12.20
2023-03-25T09:11:12.068Z,12.00
2023-03-25T09:13:40.521Z,11.80
2023-03-25T09:16:10.253Z,11.50
2023-03-25T09:18:38.614Z,11.30
2023-03-25T09:21:07.263Z,11.20
2023-03-25T09:23:37.224Z,11.20
2023-03-25T09:26:06.258Z,11.30
2023-03-25T09:28:34.618Z,11.50
2023-03-25T09:31:03.016Z,11.80
2023-03-25T09:33:31.390Z,12.00
2023-03-25T09:36:00.151Z,12.10
2023-03-25T09:38:28.593Z,12.10
2023-03-25T09:40:58.645Z,12.20
2023-03-25T09:43:40.636Z,12.20
2023-03-25T09:46:10.172Z,12.30
2023-03-25T09:48:40.402Z,12.30
2023-03-25T09:51:14.713Z,12.20
2023-03-25T09:53:47.643Z,12.20
2023-03-25T09:56:21.023Z,12.20
2023-03-25T09:58:51.637Z,12.20
2023-03-25T10:01:28.635Z,12.30
2023-03-25T10:04:10.191Z,12.10
2023-03-25T10:06:44.707Z,12.20
2023-03-25T10:09:30.298Z,12.30
2023-03-25T10:12:09.912Z,12.50
2023-03-25T10:14:49.557Z,12.60
2023-03-25T10:17:30.433Z,12.60
2023-03-25T10:20:05.608Z,12.60
2023-03-25T10:22:41.224Z,12.60
2023-03-25T10:25:15.465Z,12.80
2023-03-25T10:27:47.795Z,13.00
2023-03-25T10:30:21.696Z,13.30
2023-03-25T10:32:53.795Z,13.70
2023-03-25T10:35:26.106Z,13.80
2023-03-25T10:37:57.945Z,13.50
2023-03-25T10:40:31.068Z,13.10
2023-03-25T10:43:13.415Z,13.00
2023-03-25T10:45:43.643Z,12.70
2023-03-25T10:48:17.417Z,12.80
2023-03-25T10:50:46.630Z,13.00
2023-03-25T10:53:22.060Z,13.40
2023-03-25T10:55:53.751Z,13.70
2023-03-25T10:58:24.604Z,13.80
2023-03-25T11:00:53.049Z,13.70
2023-03-25T11:03:24.946Z,14.00
2023-03-25T11:05:54.120Z,14.40
2023-03-25T11:08:25.489Z,14.30
2023-03-25T11:10:57.873Z,14.20
2023-03-25T11:13:29.792Z,13.90
2023-03-25T11:16:00.840Z,13.60
2023-03-25T11:18:34.884Z,13.40
2023-03-25T11:21:07.805Z,13.20
2023-03-25T11:23:38.025Z,13.30
2023-03-25T11:26:09.514Z,13.80
2023-03-25T11:28:42.803Z,14.00
2023-03-25T11:31:14.933Z,14.00
2023-03-25T11:33:45.433Z,14.40
2023-03-25T11:36:27.967Z,14.40
2023-03-25T11:39:01.537Z,14.30
2023-03-25T11:41:32.763Z,14.30
2023-03-25T11:44:03.248Z,14.30
2023-03-25T11:46:32.300Z,14.20
2023-03-25T11:49:11.891Z,13.80
2023-03-25T11:51:40.785Z,13.10
2023-03-25T11:54:12.623Z,12.70
2023-03-25T11:56:43.232Z,12.70
2023-03-25T11:59:22.652Z,12.80
2023-03-25T12:01:52.515Z,13.10
2023-03-25T12:04:22.510Z,13.50
2023-03-25T12:06:57.341Z,13.90
2023-03-25T12:09:27.919Z,14.30
2023-03-25T12:12:11.074Z,14.50
2023-03-25T12:14:54.727Z,14.70
2023-03-25T12:17:30.825Z,14.20
2023-03-25T12:20:11.382Z,13.90
2023-03-25T12:22:54.059Z,13.60
2023-03-25T12:25:30.409Z,13.30
2023-03-25T12:28:14.640Z,13.30
2023-03-25T12:30:55.578Z,13.50
2023-03-25T12:33:38.193Z,13.80
2023-03-25T12:36:20.651Z,14.00
2023-03-25T12:39:00.318Z,13.80
2023-03-25T12:41:34.258Z,12.60
2023-03-25T12:44:07.436Z,11.70
2023-03-25T12:47:08.885Z,11.60
2023-03-25T12:49:51.211Z,11.70
2023-03-25T12:52:26.123Z,11.90
2023-03-25T12:55:04.613Z,12.20
2023-03-25T12:57:45.509Z,12.60
2023-03-25T13:00:38.629Z,12.80
2023-03-25T13:03:41.239Z,12.90
2023-03-25T13:06:19.868Z,13.10
2023-03-25T13:08:52.730Z,13.20
2023-03-25T13:11:27.571Z,13.20
2023-03-25T13:13:59.814Z,13.20
2023-03-25T13:16:32.143Z,13.30
2023-03-25T13:19:06.104Z,13.20
2023-03-25T13:21:38.117Z,13.00
2023-03-25T13:24:10.998Z,13.00
2023-03-25T13:26:44.501Z,13.10
2023-03-25T13:29:22.058Z,13.30
2023-03-25T13:31:51.423Z,13.10
2023-03-25T13:34:30.021Z,12.90
2023-03-25T13:37:08.360Z,12.90
2023-03-25T13:39:56.790Z,12.90
2023-03-25T13:42:32.648Z,12.90
2023-03-25T13:45:03.558Z,12.80
2023-03-25T13:47:37.495Z,13.00
2023-03-25T13:50:17.086Z,13.10
2023-03-25T13:52:50.414Z,13.20
2023-03-25T13:55:22.960Z,13.30
2023-03-25T13:58:14.254Z,13.30
2023-03-25T14:01:10.280Z,13.30
2023-03-25T14:04:03.032Z,13.10
2023-03-25T14:07:09.914Z,13.10
2023-03-25T14:10:08.546Z,13.10
2023-03-25T14:12:41.229Z,13.00
2023-03-25T14:15:16.143Z,12.90
2023-03-25T14:17:46.940Z,12.80
2023-03-25T14:20:24.477Z,12.50
2023-03-25T14:22:59.344Z,12.20
2023-03-25T14:25:37.249Z,12.10
2023-03-25T14:28:06.534Z,12.10
2023-03-25T14:30:35.345Z,12.10
2023-03-25T14:33:04.678Z,12.30
2023-03-25T14:36:00.285Z,12.40
2023-03-25T14:38:58.409Z,12.40
2023-03-25T14:42:06.469Z,12.50
2023-03-25T14:44:38.302Z,12.50
2023-03-25T14:47:30.302Z,12.30
2023-03-25T14:50:05.900Z,12.30
2023-03-25T14:52:40.012Z,12.50
2023-03-25T14:55:15.289Z,12.60
2023-03-25T14:57:45.513Z,12.50
2023-03-25T15:00:28.187Z,12.50
2023-03-25T15:03:02.592Z,12.70
2023-03-25T15:05:34.771Z,12.80
2023-03-25T15:08:15.343Z,12.90
2023-03-25T15:10:46.862Z,12.90
2023-03-25T15:13:21.444Z,13.20
2023-03-25T15:16:02.688Z,13.40
2023-03-25T15:19:03.590Z,13.40
2023-03-25T15:21:34.877Z,13.50
2023-03-25T15:24:08.635Z,13.70
2023-03-25T15:26:40.253Z,13.90
2023-03-25T15:29:38.487Z,14.20
2023-03-25T15:32:30.537Z,14.30
2023-03-25T15:35:36.642Z,14.40
2023-03-25T15:38:33.000Z,14.30
2023-03-25T15:41:17.620Z,14.40
2023-03-25T15:44:11.594Z,14.20
2023-03-25T15:47:12.747Z,14.00
2023-03-25T15:50:27.776Z,13.70
2023-03-25T15:53:32.539Z,13.70
2023-03-25T15:56:11.480Z,13.80
2023-03-25T15:58:45.797Z,13.80
2023-03-25T16:01:21.553Z,13.60
2023-03-25T16:03:58.468Z,13.60
2023-03-25T16:06:29.553Z,13.50
2023-03-25T16:08:59.586Z,13.50
2023-03-25T16:11:29.360Z,13.50
2023-03-25T16:14:09.447Z,13.60
2023-03-25T16:16:40.505Z,13.60
2023-03-25T16:19:12.765Z,13.70
2023-03-25T16:21:42.576Z,13.70
2023-03-25T16:24:14.013Z,13.60
2023-03-25T16:26:45.921Z,13.40
2023-03-25T16:29:19.079Z,13.20
2023-03-25T16:31:57.412Z,13.10
2023-03-25T16:34:27.670Z,13.00
2023-03-25T16:36:57.734Z,13.10
2023-03-25T16:39:28.061Z,13.00
2023-03-25T16:42:02.966Z,13.00
2023-03-25T16:44:31.523Z,12.90
2023-03-25T16:47:02.040Z,12.80
2023-03-25T16:49:33.296Z,12.60
2023-03-25T16:52:08.582Z,12.60
2023-03-25T16:54:39.230Z,12.50
2023-03-25T16:57:09.132Z,12.40
2023-03-25T16:59:39.274Z,12.40
2023-03-25T17:02:25.665Z,12.50
2023-03-25T17:04:58.097Z,12.50
2023-03-25T17:07:30.578Z,12.50
2023-03-25T17:10:00.739Z,12.30
2023-03-25T17:12:30.146Z,12.20
2023-03-25T17:15:06.916Z,12.20
2023-03-25T17:17:42.139Z,12.10
2023-03-25T17:20:20.655Z,12.00
2023-03-25T17:23:03.229Z,11.90
2023-03-25T17:25:35.202Z,11.80
2023-03-25T17:28:21.461Z,11.70
2023-03-25T17:30:50.362Z,11.70
2023-03-25T17:33:31.560Z,11.70
2023-03-25T17:35:59.976Z,11.80
2023-03-25T17:38:34.003Z,11.70
2023-03-25T17:41:04.455Z,11.70
2023-03-25T17:43:35.527Z,11.70
2023-03-25T17:46:06.133Z,11.60
2023-03-25T17:48:35.002Z,11.70
2023-03-25T17:51:04.224Z,11.70
2023-03-25T17:53:33.916Z,11.70
2023-03-25T17:56:03.577Z,11.70
2023-03-25T17:58:32.169Z,11.70
2023-03-25T18:01:01.356Z,11.60
2023-03-25T18:03:32.720Z,11.50
2023-03-25T18:06:01.091Z,11.50
2023-03-25T18:08:29.708Z,11.30
2023-03-25T18:11:00.030Z,11.30
2023-03-25T18:13:28.399Z,11.10
2023-03-25T18:15:57.032Z,11.10
2023-03-25T18:18:27.132Z,11.20
2023-03-25T18:20:57.034Z,11.20
2023-03-25T18:23:25.326Z,11.20
2023-03-25T18:25:53.759Z,11.20
2023-03-25T18:28:24.897Z,11.20
2023-03-25T18:30:55.582Z,11.20
2023-03-25T18:33:25.146Z,11.20
2023-03-25T18:35:55.977Z,11.10
2023-03-25T18:38:26.774Z,11.10
2023-03-25T18:40:56.936Z,11.00
2023-03-25T18:43:26.787Z,10.90
2023-03-25T18:45:55.503Z,10.80
2023-03-25T18:48:24.012Z,10.80
2023-03-25T18:50:54.777Z,10.70
2023-03-25T18:53:25.199Z,10.70
2023-03-25T18:55:54.793Z,10.70
2023-03-25T18:58:25.708Z,10.70
2023-03-25T19:00:56.098Z,10.70
2023-03-25T19:03:30.501Z,10.70
2023-03-25T19:06:00.251Z,10.70
2023-03-25T19:08:29.758Z,10.70
2023-03-25T19:11:08.096Z,10.60
2023-03-25T19:13:45.284Z,10.60
2023-03-25T19:16:15.099Z,10.60
2023-03-25T19:18:43.511Z,10.60
2023-03-25T19:21:15.158Z,10.60
2023-03-25T19:23:43.858Z,10.60
2023-03-25T19:26:12.634Z,10.50
2023-03-25T19:28:41.194Z,10.50
2023-03-25T19:31:13.247Z,10.40
2023-03-25T19:33:43.045Z,10.30
2023-03-25T19:36:15.136Z,10.30
2023-03-25T19:38:44.145Z,10.30
2023-03-25T19:41:15.537Z,10.30
2023-03-25T19:43:44.021Z,10.20
2023-03-25T19:46:12.650Z,10.20
2023-03-25T19:48:42.428Z,10.10
2023-03-25T19:51:10.734Z,10.00
2023-03-25T19:53:39.093Z,9.90
2023-03-25T19:56:09.532Z,9.90
2023-03-25T19:58:37.939Z,9.80
2023-03-25T20:01:06.630Z,9.80
2023-03-25T20:03:36.265Z,9.80
2023-03-25T20:06:07.063Z,9.70
2023-03-25T20:08:35.634Z,9.70
2023-03-25T20:11:10.467Z,9.70
2023-03-25T20:13:39.368Z,9.60
2023-03-25T20:16:08.731Z,9.60
2023-03-25T20:18:37.108Z,9.50
2023-03-25T20:21:09.685Z,9.50
2023-03-25T20:23:38.114Z,9.50
2023-03-25T20:26:07.179Z,9.50
2023-03-25T20:28:37.125Z,9.50
2023-03-25T20:31:18.323Z,9.50
2023-03-25T20:33:47.700Z,9.50
2023-03-25T20:36:17.966Z,9.40
2023-03-25T20:38:56.536Z,9.40
2023-03-25T20:41:25.500Z,9.30
2023-03-25T20:43:53.844Z,9.30
2023-03-25T20:46:24.013Z,9.20
2023-03-25T20:48:52.558Z,9.20
2023-03-25T20:51:24.129Z,9.10
2023-03-25T20:53:53.235Z,9.10
2023-03-25T20:56:21.808Z,9.10
2023-03-25T20:58:50.526Z,9.10
2023-03-25T21:01:21.186Z,9.10
2023-03-25T21:03:51.774Z,9.10
2023-03-25T21:06:25.539Z,9.10
2023-03-25T21:08:56.385Z,9.10
2023-03-25T21:11:24.822Z,9.10
2023-03-25T21:13:53.286Z,9.10
2023-03-25T21:16:21.691Z,9.00
2023-03-25T21:18:50.377Z,9.00
2023-03-25T21:21:19.870Z,9.00
2023-03-25T21:23:50.191Z,8.90
2023-03-25T21:26:18.710Z,8.90
2023-03-25T21:28:48.606Z,8.90
2023-03-25T21:31:21.802Z,8.90
2023-03-25T21:33:52.468Z,8.90
2023-03-25T21:36:22.590Z,8.90
2023-03-25T21:38:55.148Z,8.80
2023-03-25T21:41:23.759Z,8.80
2023-03-25T21:43:53.259Z,8.80
2023-03-25T21:46:24.335Z,8.80
2023-03-25T21:48:52.878Z,8.80
2023-03-25T21:51:21.688Z,8.80
2023-03-25T21:53:52.798Z,8.80
2023-03-25T21:56:24.638Z,8.90
2023-03-25T21:58:53.385Z,8.90
2023-03-25T22:01:28.415Z,9.00
2023-03-25T22:03:58.687Z,9.10
2023-03-25T22:06:29.387Z,9.20
2023-03-25T22:09:01.145Z,9.30
2023-03-25T22:11:30.179Z,9.30
2023-03-25T22:13:59.106Z,9.30
2023-03-25T22:16:28.199Z,9.30
2023-03-25T22:18:56.570Z,9.20
2023-03-25T22:21:26.760Z,9.10
2023-03-25T22:23:56.861Z,9.10
2023-03-25T22:26:27.676Z,9.00
2023-03-25T22:28:57.318Z,9.00
2023-03-25T22:31:31.043Z,9.00
2023-03-25T22:34:03.074Z,8.90
2023-03-25T22:36:32.314Z,8.90
2023-03-25T22:39:03.913Z,8.90
2023-03-25T22:41:34.227Z,8.80
2023-03-25T22:44:02.779Z,8.70
2023-03-25T22:46:32.319Z,8.70
2023-03-25T22:49:00.845Z,8.70
2023-03-25T22:51:29.259Z,8.50
2023-03-25T22:53:58.682Z,8.50
2023-03-25T22:56:33.673Z,8.50
2023-03-25T22:59:05.344Z,8.50
2023-03-25T23:01:34.408Z,8.40
2023-03-25T23:04:02.893Z,8.40
2023-03-25T23:06:31.688Z,8.40
2023-03-25T23:09:00.310Z,8.40
2023-03-25T23:11:31.304Z,8.40
2023-03-25T23:14:02.153Z,8.40
2023-03-25T23:16:34.266Z,8.40
2023-03-25T23:19:04.362Z,8.40
2023-03-25T23:21:33.928Z,8.40
2023-03-25T23:24:04.807Z,8.50
2023-03-25T23:26:36.363Z,8.60
2023-03-25T23:29:06.484Z,8.70
2023-03-25T23:31:37.627Z,8.70
2023-03-25T23:34:08.599Z,8.80
2023-03-25T23:36:38.362Z,8.90
2023-03-25T23:39:08.243Z,9.00
2023-03-25T23:41:36.825Z,9.00
2023-03-25T23:44:06.270Z,9.00
2023-03-25T23:46:36.322Z,9.10
2023-03-25T23:49:05.797Z,9.20
2023-03-25T23:51:36.559Z,9.20
2023-03-25T23:54:06.427Z,9.30
2023-03-25T23:56:35.043Z,9.30
2023-03-25T23:59:04.257Z,9.40
